sensor_id;sensor_type;location;lat;lon;timestamp;temperature;humidity
3578;DHT22;1803;48.494;9.696;2022-07-01T03:01:37;13.70;99.90
3578;DHT22;1803;48.494;9.696;2022-07-01T03:04:02;13.70;99.90
3578;DHT22;1803;48.494;9.696;2022-07-01T03:06:28;13.60;99.90
3578;DHT22;1803;48.494;9.696;2022-07-01T03:08:53;13.60;99.90
3578;DHT22;1803;48.494;9.696;2022-07-01T03:11:19;13.60;99.90
3578;DHT22;1803;48.494;9.696;2022-07-01T03:13:44;13.50;99.90
3578;DHT22;1803;48.494;9.696;2022-07-01T03:16:10;13.40;99.90
3578;DHT22;1803;48.494;9.696;2022-07-01T03:18:35;13.40;99.90
3578;DHT22;1803;48.494;9.696;2022-07-01T03:21:01;13.40;99.90
3578;DHT22;1803;48.494;9.696;2022-07-01T03:23:26;13.40;99.90
3578;DHT22;1803;48.494;9.696;2022-07-01T03:25:52;13.30;99.90
3578;DHT22;1803;48.494;9.696;2022-07-01T03:28:17;13.30;99.90
3578;DHT22;1803;48.494;9.696;2022-07-01T03:30:42;13.30;99.90
3578;DHT22;1803;48.494;9.696;2022-07-01T03:33:08;13.30;99.90
3578;DHT22;1803;48.494;9.696;2022-07-01T03:35:33;13.40;99.90
3578;DHT22;1803;48.494;9.696;2022-07-01T03:38:04;13.30;99.90
3578;DHT22;1803;48.494;9.696;2022-07-01T03:40:32;13.40;99.90
3578;DHT22;1803;48.494;9.696;2022-07-01T03:42:58;13.40;99.90
3578;DHT22;1803;48.494;9.696;2022-07-01T03:45:24;13.40;99.90
3578;DHT22;1803;48.494;9.696;2022-07-01T03:47:49;13.40;99.90
3578;DHT22;1803;48.494;9.696;2022-07-01T03:50:20;13.40;99.90
3578;DHT22;1803;48.494;9.696;2022-07-01T03:52:46;13.30;99.90
3578;DHT22;1803;48.494;9.696;2022-07-01T03:55:12;13.30;99.90
3578;DHT22;1803;48.494;9.696;2022-07-01T03:57:37;13.20;99.90
3578;DHT22;1803;48.494;9.696;2022-07-01T04:00:04;13.20;99.90
3578;DHT22;1803;48.494;9.696;2022-07-01T04:02:30;13.20;99.90
3578;DHT22;1803;48.494;9.696;2022-07-01T04:04:55;13.10;99.90
3578;DHT22;1803;48.494;9.696;2022-07-01T04:07:22;13.20;99.90
3578;DHT22;1803;48.494;9.696;2022-07-01T04:09:47;13.20;99.90
3578;DHT22;1803;48.494;9.696;2022-07-01T04:12:13;13.20;99.90
3578;DHT22;1803;48.494;9.696;2022-07-01T04:14:39;13.20;99.90
3578;DHT22;1803;48.494;9.696;2022-07-01T04:17:04;13.20;99.90
3578;DHT22;1803;48.494;9.696;2022-07-01T04:19:30;13.20;99.90
3578;DHT22;1803;48.494;9.696;2022-07-01T04:21:56;13.20;99.90
3578;DHT22;1803;48.494;9.696;2022-07-01T04:24:56;13.30;99.90
3578;DHT22;1803;48.494;9.696;2022-07-01T04:27:22;13.20;99.90
3578;DHT22;1803;48.494;9.696;2022-07-01T04:29:47;13.20;99.90
3578;DHT22;1803;48.494;9.696;2022-07-01T04:32:13;13.20;99.90
3578;DHT22;1803;48.494;9.696;2022-07-01T04:34:38;13.20;99.90
3578;DHT22;1803;48.494;9.696;2022-07-01T04:37:04;13.20;99.90
3578;DHT22;1803;48.494;9.696;2022-07-01T04:39:30;13.20;99.90
3578;DHT22;1803;48.494;9.696;2022-07-01T04:41:55;13.20;99.90
3578;DHT22;1803;48.494;9.696;2022-07-01T04:44:36;13.20;99.90
3578;DHT22;1803;48.494;9.696;2022-07-01T04:47:02;13.20;99.90
3578;DHT22;1803;48.494;9.696;2022-07-01T04:49:28;13.20;99.90
3578;DHT22;1803;48.494;9.696;2022-07-01T04:51:53;13.20;99.90
3578;DHT22;1803;48.494;9.696;2022-07-01T04:54:19;13.20;99.90
3578;DHT22;1803;48.494;9.696;2022-07-01T04:56:44;13.10;99.90
3578;DHT22;1803;48.494;9.696;2022-07-01T04:59:10;13.10;99.90
3578;DHT22;1803;48.494;9.696;2022-07-01T05:01:36;13.00;99.90
3578;DHT22;1803;48.494;9.696;2022-07-01T05:04:01;13.00;99.90
3578;DHT22;1803;48.494;9.696;2022-07-01T05:06:27;13.00;99.90
3578;DHT22;1803;48.494;9.696;2022-07-01T05:08:52;13.00;99.90
3578;DHT22;1803;48.494;9.696;2022-07-01T05:11:18;12.90;99.90
3578;DHT22;1803;48.494;9.696;2022-07-01T05:13:43;13.00;99.90
3578;DHT22;1803;48.494;9.696;2022-07-01T05:16:09;13.00;99.90
3578;DHT22;1803;48.494;9.696;2022-07-01T05:18:35;13.00;99.90
3578;DHT22;1803;48.494;9.696;2022-07-01T05:21:20;13.00;99.90
3578;DHT22;1803;48.494;9.696;2022-07-01T05:24:04;13.00;99.90
3578;DHT22;1803;48.494;9.696;2022-07-01T05:26:30;13.00;99.90
3578;DHT22;1803;48.494;9.696;2022-07-01T05:28:55;13.00;99.90
3578;DHT22;1803;48.494;9.696;2022-07-01T05:31:21;13.00;99.90
3578;DHT22;1803;48.494;9.696;2022-07-01T05:33:46;13.00;99.90
3578;DHT22;1803;48.494;9.696;2022-07-01T05:36:12;13.00;99.90
3578;DHT22;1803;48.494;9.696;2022-07-01T05:38:37;13.00;99.90
3578;DHT22;1803;48.494;9.696;2022-07-01T05:41:03;13.00;99.90
3578;DHT22;1803;48.494;9.696;2022-07-01T05:43:29;13.10;99.90
3578;DHT22;1803;48.494;9.696;2022-07-01T05:45:55;13.10;99.90
3578;DHT22;1803;48.494;9.696;2022-07-01T05:48:21;13.10;99.90
3578;DHT22;1803;48.494;9.696;2022-07-01T05:50:46;13.10;99.90
3578;DHT22;1803;48.494;9.696;2022-07-01T05:53:12;13.00;99.90
3578;DHT22;1803;48.494;9.696;2022-07-01T05:55:38;13.10;99.90
3578;DHT22;1803;48.494;9.696;2022-07-01T05:58:03;13.10;99.90
3578;DHT22;1803;48.494;9.696;2022-07-01T06:00:31;13.10;99.90
3578;DHT22;1803;48.494;9.696;2022-07-01T06:02:56;13.10;99.90
3578;DHT22;1803;48.494;9.696;2022-07-01T06:05:22;13.10;99.90
3578;DHT22;1803;48.494;9.696;2022-07-01T06:07:47;13.20;99.90
3578;DHT22;1803;48.494;9.696;2022-07-01T06:10:12;13.30;99.90
3578;DHT22;1803;48.494;9.696;2022-07-01T06:12:38;13.30;99.90
3578;DHT22;1803;48.494;9.696;2022-07-01T06:15:07;13.30;99.90
3578;DHT22;1803;48.494;9.696;2022-07-01T06:17:39;13.40;99.90
3578;DHT22;1803;48.494;9.696;2022-07-01T06:20:05;13.40;99.90
3578;DHT22;1803;48.494;9.696;2022-07-01T06:22:31;13.40;99.90
3578;DHT22;1803;48.494;9.696;2022-07-01T06:24:56;13.50;99.90
3578;DHT22;1803;48.494;9.696;2022-07-01T06:27:22;13.50;99.90
3578;DHT22;1803;48.494;9.696;2022-07-01T06:29:48;13.40;99.90
3578;DHT22;1803;48.494;9.696;2022-07-01T06:32:14;13.40;99.90
3578;DHT22;1803;48.494;9.696;2022-07-01T06:34:39;13.40;99.90
3578;DHT22;1803;48.494;9.696;2022-07-01T06:37:05;13.40;99.90
3578;DHT22;1803;48.494;9.696;2022-07-01T06:39:30;13.40;99.90
3578;DHT22;1803;48.494;9.696;2022-07-01T06:41:56;13.50;99.90
3578;DHT22;1803;48.494;9.696;2022-07-01T06:44:21;13.50;99.90
3578;DHT22;1803;48.494;9.696;2022-07-01T06:46:47;13.50;99.90
3578;DHT22;1803;48.494;9.696;2022-07-01T06:49:13;13.60;99.90
3578;DHT22;1803;48.494;9.696;2022-07-01T06:51:38;13.60;99.90
3578;DHT22;1803;48.494;9.696;2022-07-01T06:54:04;13.60;99.90
3578;DHT22;1803;48.494;9.696;2022-07-01T06:56:29;13.60;99.90
3578;DHT22;1803;48.494;9.696;2022-07-01T06:58:55;13.60;99.90
3578;DHT22;1803;48.494;9.696;2022-07-01T07:01:21;13.60;99.90
3578;DHT22;1803;48.494;9.696;2022-07-01T07:03:47;13.70;99.90
3578;DHT22;1803;48.494;9.696;2022-07-01T07:06:12;13.70;99.90
3578;DHT22;1803;48.494;9.696;2022-07-01T07:08:37;13.60;99.90
3578;DHT22;1803;48.494;9.696;2022-07-01T07:11:03;13.60;99.90
3578;DHT22;1803;48.494;9.696;2022-07-01T07:13:29;13.60;99.90
3578;DHT22;1803;48.494;9.696;2022-07-01T07:15:54;13.60;99.90
3578;DHT22;1803;48.494;9.696;2022-07-01T07:18:20;13.70;99.90
3578;DHT22;1803;48.494;9.696;2022-07-01T07:20:46;13.80;99.90
3578;DHT22;1803;48.494;9.696;2022-07-01T07:23:13;13.80;99.90
3578;DHT22;1803;48.494;9.696;2022-07-01T07:25:38;13.90;99.90
3578;DHT22;1803;48.494;9.696;2022-07-01T07:28:04;13.90;99.90
3578;DHT22;1803;48.494;9.696;2022-07-01T07:30:29;14.00;99.90
3578;DHT22;1803;48.494;9.696;2022-07-01T07:32:54;14.00;99.90
3578;DHT22;1803;48.494;9.696;2022-07-01T07:35:20;14.00;99.90
3578;DHT22;1803;48.494;9.696;2022-07-01T07:37:45;14.00;99.90
3578;DHT22;1803;48.494;9.696;2022-07-01T07:40:12;14.10;99.90
3578;DHT22;1803;48.494;9.696;2022-07-01T07:42:40;14.10;99.90
3578;DHT22;1803;48.494;9.696;2022-07-01T07:45:06;14.20;99.90
3578;DHT22;1803;48.494;9.696;2022-07-01T07:47:32;14.40;99.90
3578;DHT22;1803;48.494;9.696;2022-07-01T07:49:58;14.40;99.90
3578;DHT22;1803;48.494;9.696;2022-07-01T07:52:23;14.40;99.90
3578;DHT22;1803;48.494;9.696;2022-07-01T07:54:49;14.40;99.90
3578;DHT22;1803;48.494;9.696;2022-07-01T07:57:14;14.50;99.90
3578;DHT22;1803;48.494;9.696;2022-07-01T07:59:40;14.40;99.90
3578;DHT22;1803;48.494;9.696;2022-07-01T08:02:05;14.30;99.90
3578;DHT22;1803;48.494;9.696;2022-07-01T08:04:31;14.30;99.90
3578;DHT22;1803;48.494;9.696;2022-07-01T08:06:56;14.30;99.90
3578;DHT22;1803;48.494;9.696;2022-07-01T08:09:22;14.40;99.90
3578;DHT22;1803;48.494;9.696;2022-07-01T08:11:47;14.40;99.90
3578;DHT22;1803;48.494;9.696;2022-07-01T08:14:13;14.40;99.90
3578;DHT22;1803;48.494;9.696;2022-07-01T08:16:38;14.40;99.90
3578;DHT22;1803;48.494;9.696;2022-07-01T08:19:03;14.40;99.90
3578;DHT22;1803;48.494;9.696;2022-07-01T08:21:29;14.40;99.90
3578;DHT22;1803;48.494;9.696;2022-07-01T08:23:55;14.50;99.90
3578;DHT22;1803;48.494;9.696;2022-07-01T08:26:20;14.50;99.90
3578;DHT22;1803;48.494;9.696;2022-07-01T08:28:46;14.50;99.90
3578;DHT22;1803;48.494;9.696;2022-07-01T08:31:11;14.50;99.90
3578;DHT22;1803;48.494;9.696;2022-07-01T08:33:37;14.60;99.90
3578;DHT22;1803;48.494;9.696;2022-07-01T08:36:03;14.50;99.90
3578;DHT22;1803;48.494;9.696;2022-07-01T08:38:28;14.60;99.90
3578;DHT22;1803;48.494;9.696;2022-07-01T08:40:54;14.60;99.90
3578;DHT22;1803;48.494;9.696;2022-07-01T08:43:19;14.60;99.90
3578;DHT22;1803;48.494;9.696;2022-07-01T08:45:45;14.60;99.90
3578;DHT22;1803;48.494;9.696;2022-07-01T08:48:10;14.70;99.90
3578;DHT22;1803;48.494;9.696;2022-07-01T08:50:37;14.70;99.90
3578;DHT22;1803;48.494;9.696;2022-07-01T08:53:03;14.70;99.90
3578;DHT22;1803;48.494;9.696;2022-07-01T08:55:29;14.80;99.90
3578;DHT22;1803;48.494;9.696;2022-07-01T08:57:55;14.90;99.90
3578;DHT22;1803;48.494;9.696;2022-07-01T09:00:21;15.00;99.90
3578;DHT22;1803;48.494;9.696;2022-07-01T09:05:14;15.10;99.90
3578;DHT22;1803;48.494;9.696;2022-07-01T09:07:40;15.10;99.90
3578;DHT22;1803;48.494;9.696;2022-07-01T09:10:12;15.10;99.90
3578;DHT22;1803;48.494;9.696;2022-07-01T09:12:41;15.10;99.90
3578;DHT22;1803;48.494;9.696;2022-07-01T09:20:34;15.10;99.90
3578;DHT22;1803;48.494;9.696;2022-07-01T09:23:01;15.10;99.90
3578;DHT22;1803;48.494;9.696;2022-07-01T09:25:28;15.00;99.90
3578;DHT22;1803;48.494;9.696;2022-07-01T09:28:08;15.00;99.90
3578;DHT22;1803;48.494;9.696;2022-07-01T09:30:34;14.80;99.90
3578;DHT22;1803;48.494;9.696;2022-07-01T09:33:06;14.80;99.90
3578;DHT22;1803;48.494;9.696;2022-07-01T09:35:32;14.70;99.90
3578;DHT22;1803;48.494;9.696;2022-07-01T09:37:58;14.70;99.90
3578;DHT22;1803;48.494;9.696;2022-07-01T09:40:23;14.60;99.90
3578;DHT22;1803;48.494;9.696;2022-07-01T09:42:48;14.70;99.90
3578;DHT22;1803;48.494;9.696;2022-07-01T09:45:14;14.70;99.90
3578;DHT22;1803;48.494;9.696;2022-07-01T09:47:40;14.80;99.90
3578;DHT22;1803;48.494;9.696;2022-07-01T09:50:06;14.80;99.90
3578;DHT22;1803;48.494;9.696;2022-07-01T09:52:32;14.80;99.90
3578;DHT22;1803;48.494;9.696;2022-07-01T09:54:58;14.80;99.90
3578;DHT22;1803;48.494;9.696;2022-07-01T09:57:23;14.80;99.90
3578;DHT22;1803;48.494;9.696;2022-07-01T09:59:49;14.80;99.90
3578;DHT22;1803;48.494;9.696;2022-07-01T10:02:15;14.80;99.90
3578;DHT22;1803;48.494;9.696;2022-07-01T10:04:46;14.90;99.90
3578;DHT22;1803;48.494;9.696;2022-07-01T10:07:24;14.90;99.90
3578;DHT22;1803;48.494;9.696;2022-07-01T10:09:55;14.90;99.90
3578;DHT22;1803;48.494;9.696;2022-07-01T10:12:35;14.90;99.90
3578;DHT22;1803;48.494;9.696;2022-07-01T10:15:02;14.80;99.90
3578;DHT22;1803;48.494;9.696;2022-07-01T10:19:54;14.80;99.90
3578;DHT22;1803;48.494;9.696;2022-07-01T10:24:51;14.90;99.90
3578;DHT22;1803;48.494;9.696;2022-07-01T10:27:21;14.80;99.90
3578;DHT22;1803;48.494;9.696;2022-07-01T10:29:47;14.60;99.90
3578;DHT22;1803;48.494;9.696;2022-07-01T10:32:33;14.60;99.90
3578;DHT22;1803;48.494;9.696;2022-07-01T10:35:04;14.50;99.90
3578;DHT22;1803;48.494;9.696;2022-07-01T10:37:30;14.50;99.90
3578;DHT22;1803;48.494;9.696;2022-07-01T10:39:59;14.50;99.90
3578;DHT22;1803;48.494;9.696;2022-07-01T10:42:29;14.60;99.90
3578;DHT22;1803;48.494;9.696;2022-07-01T10:45:02;14.60;99.90
3578;DHT22;1803;48.494;9.696;2022-07-01T10:47:27;14.60;99.90
3578;DHT22;1803;48.494;9.696;2022-07-01T10:50:03;14.60;99.90
3578;DHT22;1803;48.494;9.696;2022-07-01T10:52:28;14.60;99.90
3578;DHT22;1803;48.494;9.696;2022-07-01T10:54:54;14.50;99.90
3578;DHT22;1803;48.494;9.696;2022-07-01T10:57:22;14.50;99.90
3578;DHT22;1803;48.494;9.696;2022-07-01T10:59:52;14.50;99.90
3578;DHT22;1803;48.494;9.696;2022-07-01T11:02:21;14.50;99.90
3578;DHT22;1803;48.494;9.696;2022-07-01T11:04:47;14.60;99.90
3578;DHT22;1803;48.494;9.696;2022-07-01T11:07:13;14.70;99.90
3578;DHT22;1803;48.494;9.696;2022-07-01T11:09:38;14.70;99.90
3578;DHT22;1803;48.494;9.696;2022-07-01T11:12:07;14.70;99.90
3578;DHT22;1803;48.494;9.696;2022-07-01T11:14:33;14.80;99.90
3578;DHT22;1803;48.494;9.696;2022-07-01T11:16:59;14.90;99.90
3578;DHT22;1803;48.494;9.696;2022-07-01T11:19:24;15.10;99.90
3578;DHT22;1803;48.494;9.696;2022-07-01T11:21:50;15.30;99.90
3578;DHT22;1803;48.494;9.696;2022-07-01T11:24:16;15.30;99.90
3578;DHT22;1803;48.494;9.696;2022-07-01T11:26:42;15.30;99.90
3578;DHT22;1803;48.494;9.696;2022-07-01T11:29:09;15.50;99.90
3578;DHT22;1803;48.494;9.696;2022-07-01T11:31:35;15.60;99.90
3578;DHT22;1803;48.494;9.696;2022-07-01T11:34:02;15.70;99.90
3578;DHT22;1803;48.494;9.696;2022-07-01T11:36:28;15.80;99.90
3578;DHT22;1803;48.494;9.696;2022-07-01T11:39:12;15.80;99.90
3578;DHT22;1803;48.494;9.696;2022-07-01T11:41:47;15.60;99.90
3578;DHT22;1803;48.494;9.696;2022-07-01T11:44:27;15.50;99.90
3578;DHT22;1803;48.494;9.696;2022-07-01T11:46:52;15.50;99.90
3578;DHT22;1803;48.494;9.696;2022-07-01T11:49:17;15.50;99.90
3578;DHT22;1803;48.494;9.696;2022-07-01T11:52:21;15.70;99.90
3578;DHT22;1803;48.494;9.696;2022-07-01T11:54:40;15.90;99.90
3578;DHT22;1803;48.494;9.696;2022-07-01T11:59:34;16.20;99.90
3578;DHT22;1803;48.494;9.696;2022-07-01T12:02:03;16.40;99.90
3578;DHT22;1803;48.494;9.696;2022-07-01T12:04:29;16.60;99.90
3578;DHT22;1803;48.494;9.696;2022-07-01T12:06:54;16.90;99.90
3578;DHT22;1803;48.494;9.696;2022-07-01T12:09:20;17.10;99.90
3578;DHT22;1803;48.494;9.696;2022-07-01T12:11:46;17.30;99.90
3578;DHT22;1803;48.494;9.696;2022-07-01T12:14:19;17.30;99.90
3578;DHT22;1803;48.494;9.696;2022-07-01T12:16:45;17.20;99.90
3578;DHT22;1803;48.494;9.696;2022-07-01T12:19:11;17.30;99.90
3578;DHT22;1803;48.494;9.696;2022-07-01T12:21:49;17.40;99.90
3578;DHT22;1803;48.494;9.696;2022-07-01T12:24:15;17.50;99.90
3578;DHT22;1803;48.494;9.696;2022-07-01T12:29:14;17.60;99.90
3578;DHT22;1803;48.494;9.696;2022-07-01T12:31:43;17.60;99.90
3578;DHT22;1803;48.494;9.696;2022-07-01T12:34:08;17.50;99.90
3578;DHT22;1803;48.494;9.696;2022-07-01T12:36:34;17.50;99.90
3578;DHT22;1803;48.494;9.696;2022-07-01T12:39:00;17.40;99.90
3578;DHT22;1803;48.494;9.696;2022-07-01T12:41:33;17.50;99.90
3578;DHT22;1803;48.494;9.696;2022-07-01T12:44:20;17.60;99.90
3578;DHT22;1803;48.494;9.696;2022-07-01T12:46:44;17.70;99.90
3578;DHT22;1803;48.494;9.696;2022-07-01T12:49:17;18.10;99.90
3578;DHT22;1803;48.494;9.696;2022-07-01T12:51:43;18.40;99.90
3578;DHT22;1803;48.494;9.696;2022-07-01T12:54:09;18.90;99.90
3578;DHT22;1803;48.494;9.696;2022-07-01T12:56:52;19.30;99.90
3578;DHT22;1803;48.494;9.696;2022-07-01T12:59:18;19.80;99.90
3578;DHT22;1803;48.494;9.696;2022-07-01T13:01:43;19.80;99.90
3578;DHT22;1803;48.494;9.696;2022-07-01T13:04:09;19.90;99.90
3578;DHT22;1803;48.494;9.696;2022-07-01T13:06:34;20.10;99.90
3578;DHT22;1803;48.494;9.696;2022-07-01T13:09:00;20.30;99.90
3578;DHT22;1803;48.494;9.696;2022-07-01T13:11:25;20.40;99.90
3578;DHT22;1803;48.494;9.696;2022-07-01T13:13:51;20.50;99.90
3578;DHT22;1803;48.494;9.696;2022-07-01T13:16:16;20.50;99.90
3578;DHT22;1803;48.494;9.696;2022-07-01T13:18:41;20.80;99.90
3578;DHT22;1803;48.494;9.696;2022-07-01T13:21:07;21.20;99.90
3578;DHT22;1803;48.494;9.696;2022-07-01T13:23:32;21.00;99.90
3578;DHT22;1803;48.494;9.696;2022-07-01T13:25:58;20.80;99.90
3578;DHT22;1803;48.494;9.696;2022-07-01T13:28:23;20.70;99.90
3578;DHT22;1803;48.494;9.696;2022-07-01T13:30:49;20.70;99.90
3578;DHT22;1803;48.494;9.696;2022-07-01T13:33:14;20.90;99.90
3578;DHT22;1803;48.494;9.696;2022-07-01T13:35:40;21.10;99.90
3578;DHT22;1803;48.494;9.696;2022-07-01T13:38:05;21.20;99.90
3578;DHT22;1803;48.494;9.696;2022-07-01T13:40:31;21.40;99.90
3578;DHT22;1803;48.494;9.696;2022-07-01T13:42:56;21.50;99.90
3578;DHT22;1803;48.494;9.696;2022-07-01T13:45:21;21.40;99.90
3578;DHT22;1803;48.494;9.696;2022-07-01T13:47:47;21.30;99.90
3578;DHT22;1803;48.494;9.696;2022-07-01T13:50:13;21.00;99.90
3578;DHT22;1803;48.494;9.696;2022-07-01T13:52:38;20.70;99.90
3578;DHT22;1803;48.494;9.696;2022-07-01T13:55:04;20.40;99.90
3578;DHT22;1803;48.494;9.696;2022-07-01T13:57:29;20.20;99.90
3578;DHT22;1803;48.494;9.696;2022-07-01T13:59:55;20.20;99.90
3578;DHT22;1803;48.494;9.696;2022-07-01T14:02:22;20.20;99.90
3578;DHT22;1803;48.494;9.696;2022-07-01T14:04:48;20.40;99.90
3578;DHT22;1803;48.494;9.696;2022-07-01T14:07:13;20.50;99.90
3578;DHT22;1803;48.494;9.696;2022-07-01T14:09:39;20.50;99.90
3578;DHT22;1803;48.494;9.696;2022-07-01T14:12:06;20.40;99.90
3578;DHT22;1803;48.494;9.696;2022-07-01T14:14:31;20.30;99.90
3578;DHT22;1803;48.494;9.696;2022-07-01T14:16:57;20.10;99.90
3578;DHT22;1803;48.494;9.696;2022-07-01T14:19:22;19.90;99.90
3578;DHT22;1803;48.494;9.696;2022-07-01T14:21:47;19.80;99.90
3578;DHT22;1803;48.494;9.696;2022-07-01T14:24:13;19.70;99.90
3578;DHT22;1803;48.494;9.696;2022-07-01T14:26:38;19.70;99.90
3578;DHT22;1803;48.494;9.696;2022-07-01T14:29:04;19.50;99.90
3578;DHT22;1803;48.494;9.696;2022-07-01T14:31:29;19.40;99.90
3578;DHT22;1803;48.494;9.696;2022-07-01T14:33:55;19.30;99.90
3578;DHT22;1803;48.494;9.696;2022-07-01T14:36:20;19.40;99.90
3578;DHT22;1803;48.494;9.696;2022-07-01T14:38:46;19.50;99.90
3578;DHT22;1803;48.494;9.696;2022-07-01T14:41:11;19.70;99.90
3578;DHT22;1803;48.494;9.696;2022-07-01T14:43:37;20.00;99.90
3578;DHT22;1803;48.494;9.696;2022-07-01T14:46:03;20.20;99.90
3578;DHT22;1803;48.494;9.696;2022-07-01T14:48:34;20.20;99.90
3578;DHT22;1803;48.494;9.696;2022-07-01T14:51:01;20.10;99.90
3578;DHT22;1803;48.494;9.696;2022-07-01T14:53:26;20.00;99.90
3578;DHT22;1803;48.494;9.696;2022-07-01T14:55:52;19.70;99.90
3578;DHT22;1803;48.494;9.696;2022-07-01T14:58:17;19.70;99.90
3578;DHT22;1803;48.494;9.696;2022-07-01T15:00:43;19.60;99.90
3578;DHT22;1803;48.494;9.696;2022-07-01T15:03:10;19.70;99.90
3578;DHT22;1803;48.494;9.696;2022-07-01T15:05:35;19.80;99.90
3578;DHT22;1803;48.494;9.696;2022-07-01T15:08:01;19.70;99.90
3578;DHT22;1803;48.494;9.696;2022-07-01T15:10:26;20.00;99.90
3578;DHT22;1803;48.494;9.696;2022-07-01T15:12:52;20.20;99.90
3578;DHT22;1803;48.494;9.696;2022-07-01T15:15:18;20.50;99.90
3578;DHT22;1803;48.494;9.696;2022-07-01T15:17:44;20.60;99.90
3578;DHT22;1803;48.494;9.696;2022-07-01T15:20:10;20.60;99.90
3578;DHT22;1803;48.494;9.696;2022-07-01T15:22:36;20.40;99.90
3578;DHT22;1803;48.494;9.696;2022-07-01T15:25:02;20.10;99.90
3578;DHT22;1803;48.494;9.696;2022-07-01T15:27:28;20.00;99.90
3578;DHT22;1803;48.494;9.696;2022-07-01T15:29:53;19.80;99.90
3578;DHT22;1803;48.494;9.696;2022-07-01T15:32:19;19.60;99.90
3578;DHT22;1803;48.494;9.696;2022-07-01T15:34:44;19.50;99.90
3578;DHT22;1803;48.494;9.696;2022-07-01T15:37:11;19.50;99.90
3578;DHT22;1803;48.494;9.696;2022-07-01T15:39:37;19.40;99.90
3578;DHT22;1803;48.494;9.696;2022-07-01T15:42:02;19.50;99.90
3578;DHT22;1803;48.494;9.696;2022-07-01T15:44:28;19.40;99.90
3578;DHT22;1803;48.494;9.696;2022-07-01T15:46:54;19.50;99.90
3578;DHT22;1803;48.494;9.696;2022-07-01T15:49:19;19.40;99.90
3578;DHT22;1803;48.494;9.696;2022-07-01T15:51:45;19.40;99.90
3578;DHT22;1803;48.494;9.696;2022-07-01T15:54:10;19.40;99.90
3578;DHT22;1803;48.494;9.696;2022-07-01T15:56:36;19.30;99.90
3578;DHT22;1803;48.494;9.696;2022-07-01T15:59:02;19.30;99.90
3578;DHT22;1803;48.494;9.696;2022-07-01T16:01:27;19.30;99.90
3578;DHT22;1803;48.494;9.696;2022-07-01T16:03:53;19.20;99.90
3578;DHT22;1803;48.494;9.696;2022-07-01T16:06:19;19.20;99.90
3578;DHT22;1803;48.494;9.696;2022-07-01T16:08:45;19.00;99.90
3578;DHT22;1803;48.494;9.696;2022-07-01T16:11:14;18.90;99.90
3578;DHT22;1803;48.494;9.696;2022-07-01T16:13:53;18.70;99.90
3578;DHT22;1803;48.494;9.696;2022-07-01T16:16:22;18.70;99.90
3578;DHT22;1803;48.494;9.696;2022-07-01T16:18:48;18.60;99.90
3578;DHT22;1803;48.494;9.696;2022-07-01T16:21:14;18.60;99.90
3578;DHT22;1803;48.494;9.696;2022-07-01T16:23:40;18.50;99.90
3578;DHT22;1803;48.494;9.696;2022-07-01T16:26:06;18.50;99.90
3578;DHT22;1803;48.494;9.696;2022-07-01T16:28:33;18.50;99.90
3578;DHT22;1803;48.494;9.696;2022-07-01T16:30:58;18.50;99.90
3578;DHT22;1803;48.494;9.696;2022-07-01T16:33:27;18.50;99.90
3578;DHT22;1803;48.494;9.696;2022-07-01T16:35:54;18.60;99.90
3578;DHT22;1803;48.494;9.696;2022-07-01T16:40:50;18.60;99.90
3578;DHT22;1803;48.494;9.696;2022-07-01T16:43:17;18.60;99.90
3578;DHT22;1803;48.494;9.696;2022-07-01T16:45:44;18.70;99.90
3578;DHT22;1803;48.494;9.696;2022-07-01T16:48:13;18.80;99.90
3578;DHT22;1803;48.494;9.696;2022-07-01T16:50:40;18.80;99.90
3578;DHT22;1803;48.494;9.696;2022-07-01T16:53:11;18.90;99.90
3578;DHT22;1803;48.494;9.696;2022-07-01T16:55:36;18.90;99.90
3578;DHT22;1803;48.494;9.696;2022-07-01T16:58:06;18.80;99.90
3578;DHT22;1803;48.494;9.696;2022-07-01T17:00:32;18.70;99.90
3578;DHT22;1803;48.494;9.696;2022-07-01T17:02:57;18.70;99.90
3578;DHT22;1803;48.494;9.696;2022-07-01T17:05:27;18.70;99.90
3578;DHT22;1803;48.494;9.696;2022-07-01T17:07:53;18.70;99.90
3578;DHT22;1803;48.494;9.696;2022-07-01T17:10:19;18.80;99.90
3578;DHT22;1803;48.494;9.696;2022-07-01T17:12:46;18.70;99.90
3578;DHT22;1803;48.494;9.696;2022-07-01T17:15:13;18.70;99.90
3578;DHT22;1803;48.494;9.696;2022-07-01T17:17:39;18.60;99.90
3578;DHT22;1803;48.494;9.696;2022-07-01T17:20:05;18.50;99.90
3578;DHT22;1803;48.494;9.696;2022-07-01T17:22:38;18.50;99.90
3578;DHT22;1803;48.494;9.696;2022-07-01T17:30:01;18.70;99.90
3578;DHT22;1803;48.494;9.696;2022-07-01T17:32:30;18.80;99.90
3578;DHT22;1803;48.494;9.696;2022-07-01T17:34:56;18.70;99.90
3578;DHT22;1803;48.494;9.696;2022-07-01T17:37:24;18.70;99.90
3578;DHT22;1803;48.494;9.696;2022-07-01T17:39:51;18.70;99.90
3578;DHT22;1803;48.494;9.696;2022-07-01T17:42:18;18.60;99.90
3578;DHT22;1803;48.494;9.696;2022-07-01T17:44:43;18.50;99.90
3578;DHT22;1803;48.494;9.696;2022-07-01T17:47:09;18.40;99.90
3578;DHT22;1803;48.494;9.696;2022-07-01T17:49:36;18.20;99.90
3578;DHT22;1803;48.494;9.696;2022-07-01T17:52:03;18.00;99.90
3578;DHT22;1803;48.494;9.696;2022-07-01T17:54:30;17.90;99.90
3578;DHT22;1803;48.494;9.696;2022-07-01T17:56:56;17.80;99.90
3578;DHT22;1803;48.494;9.696;2022-07-01T17:59:22;17.50;99.90
3578;DHT22;1803;48.494;9.696;2022-07-01T18:01:47;17.40;99.90
3578;DHT22;1803;48.494;9.696;2022-07-01T18:04:13;17.20;99.90
3578;DHT22;1803;48.494;9.696;2022-07-01T18:06:40;17.10;99.90
3578;DHT22;1803;48.494;9.696;2022-07-01T18:09:06;17.00;99.90
3578;DHT22;1803;48.494;9.696;2022-07-01T18:11:48;16.90;99.90
3578;DHT22;1803;48.494;9.696;2022-07-01T18:17:16;16.70;99.90
3578;DHT22;1803;48.494;9.696;2022-07-01T18:22:24;16.40;99.90
3578;DHT22;1803;48.494;9.696;2022-07-01T18:24:50;16.30;99.90
3578;DHT22;1803;48.494;9.696;2022-07-01T18:27:20;16.30;99.90
3578;DHT22;1803;48.494;9.696;2022-07-01T18:29:53;16.30;99.90
3578;DHT22;1803;48.494;9.696;2022-07-01T18:32:19;16.20;99.90
3578;DHT22;1803;48.494;9.696;2022-07-01T18:37:12;16.10;99.90
3578;DHT22;1803;48.494;9.696;2022-07-01T18:39:38;15.90;99.90
3578;DHT22;1803;48.494;9.696;2022-07-01T18:42:04;15.80;99.90
3578;DHT22;1803;48.494;9.696;2022-07-01T18:44:31;15.80;99.90
3578;DHT22;1803;48.494;9.696;2022-07-01T18:46:56;15.70;99.90
3578;DHT22;1803;48.494;9.696;2022-07-01T18:49:21;15.50;99.90
3578;DHT22;1803;48.494;9.696;2022-07-01T18:51:47;15.50;99.90
3578;DHT22;1803;48.494;9.696;2022-07-01T18:54:12;15.40;99.90
3578;DHT22;1803;48.494;9.696;2022-07-01T18:56:38;15.30;99.90
3578;DHT22;1803;48.494;9.696;2022-07-01T18:59:03;15.20;99.90
3578;DHT22;1803;48.494;9.696;2022-07-01T19:01:29;15.20;99.90
3578;DHT22;1803;48.494;9.696;2022-07-01T19:03:54;15.20;99.90
3578;DHT22;1803;48.494;9.696;2022-07-01T19:06:20;15.10;99.90
3578;DHT22;1803;48.494;9.696;2022-07-01T19:08:45;15.10;99.90
3578;DHT22;1803;48.494;9.696;2022-07-01T19:11:11;15.00;99.90
3578;DHT22;1803;48.494;9.696;2022-07-01T19:13:36;15.00;99.90
3578;DHT22;1803;48.494;9.696;2022-07-01T19:16:02;14.90;99.90
3578;DHT22;1803;48.494;9.696;2022-07-01T19:18:29;14.90;99.90
3578;DHT22;1803;48.494;9.696;2022-07-01T19:20:54;14.80;99.90
3578;DHT22;1803;48.494;9.696;2022-07-01T19:23:20;14.80;99.90
3578;DHT22;1803;48.494;9.696;2022-07-01T19:25:45;14.80;99.90
3578;DHT22;1803;48.494;9.696;2022-07-01T19:28:11;14.70;99.90
3578;DHT22;1803;48.494;9.696;2022-07-01T19:30:36;14.70;99.90
3578;DHT22;1803;48.494;9.696;2022-07-01T19:33:02;14.70;99.90